createdAt,value
2019-03-25T00:01:11.693Z,100448.76
2019-03-25T00:03:37.592Z,100447.98
2019-03-25T00:06:03.545Z,100448.89
2019-03-25T00:08:29.506Z,100454.20
2019-03-25T00:10:55.365Z,100459.95
2019-03-25T00:13:21.380Z,100464.41
2019-03-25T00:15:47.237Z,100467.52
2019-03-25T00:18:13.103Z,100468.02
2019-03-25T00:20:38.947Z,100474.19
2019-03-25T00:23:04.938Z,100475.98
2019-03-25T00:25:30.803Z,100473.41
2019-03-25T00:27:56.635Z,100482.20
2019-03-25T00:30:22.489Z,100475.29
2019-03-25T00:32:48.376Z,100474.02
2019-03-25T00:35:14.266Z,100471.43
2019-03-25T00:37:40.127Z,100476.30
2019-03-25T00:40:06.280Z,100471.52
2019-03-25T00:42:32.249Z,100472.48
2019-03-25T00:44:58.197Z,100471.16
2019-03-25T00:47:24.121Z,100475.15
2019-03-25T00:49:50.083Z,100469.94
2019-03-25T00:52:15.988Z,100481.36
2019-03-25T00:54:49.945Z,100480.09
2019-03-25T00:57:09.831Z,100477.55
2019-03-25T00:59:35.697Z,100483.73
2019-03-25T01:02:01.595Z,100480.30
2019-03-25T01:04:27.581Z,100475.53
2019-03-25T01:06:53.434Z,100488.67
2019-03-25T01:09:19.480Z,100494.02
2019-03-25T01:11:49.331Z,100488.88
2019-03-25T01:14:13.303Z,100492.43
2019-03-25T01:16:39.196Z,100495.53
2019-03-25T01:19:05.240Z,100495.09
2019-03-25T01:21:31.088Z,100491.20
2019-03-25T01:23:57.103Z,100485.14
2019-03-25T01:26:23.091Z,100489.52
2019-03-25T01:28:48.937Z,100489.16
2019-03-25T01:31:14.811Z,100489.33
2019-03-25T01:33:40.674Z,100490.25
2019-03-25T01:36:06.515Z,100496.45
2019-03-25T01:38:32.519Z,100499.13
2019-03-25T01:40:58.481Z,100502.23
2019-03-25T01:43:24.420Z,100504.49
2019-03-25T01:45:50.260Z,100497.09
2019-03-25T01:48:16.137Z,100495.42
2019-03-25T01:50:42.003Z,100491.13
2019-03-25T01:53:07.962Z,100492.52
2019-03-25T01:55:33.815Z,100488.69
2019-03-25T01:57:59.704Z,100493.58
2019-03-25T02:00:25.704Z,100496.69
2019-03-25T02:02:51.552Z,100495.45
2019-03-25T02:05:17.404Z,100493.81
2019-03-25T02:07:43.290Z,100497.39
2019-03-25T02:10:10.488Z,100493.53
2019-03-25T02:12:36.428Z,100503.22
2019-03-25T02:15:02.623Z,100506.77
2019-03-25T02:17:28.517Z,100508.55
2019-03-25T02:19:54.492Z,100505.09
2019-03-25T02:22:20.524Z,100510.38
2019-03-25T02:24:46.343Z,100507.34
2019-03-25T02:27:12.211Z,100513.98
2019-03-25T02:29:38.103Z,100514.02
2019-03-25T02:32:04.058Z,100511.42
2019-03-25T02:34:29.906Z,100522.36
2019-03-25T02:36:55.831Z,100525.45
2019-03-25T02:39:21.681Z,100531.21
2019-03-25T02:41:47.640Z,100525.13
2019-03-25T02:44:13.512Z,100528.22
2019-03-25T02:46:39.358Z,100529.61
2019-03-25T02:49:05.248Z,100531.02
2019-03-25T02:51:31.333Z,100534.08
2019-03-25T02:53:57.252Z,100536.73
2019-03-25T02:56:23.098Z,100541.22
2019-03-25T02:58:48.987Z,100541.72
2019-03-25T03:01:14.965Z,100543.09
2019-03-25T03:03:40.831Z,100542.25
2019-03-25T03:06:06.784Z,100540.14
2019-03-25T03:08:32.649Z,100542.33
2019-03-25T03:10:58.614Z,100534.48
2019-03-25T03:13:24.623Z,100541.58
2019-03-25T03:15:51.114Z,100542.86
2019-03-25T03:18:16.988Z,100541.58
2019-03-25T03:20:42.998Z,100544.14
2019-03-25T03:23:09.083Z,100541.05
2019-03-25T03:25:34.980Z,100541.92
2019-03-25T03:28:01.148Z,100538.39
2019-03-25T03:30:26.999Z,100537.52
2019-03-25T03:32:52.837Z,100546.26
2019-03-25T03:35:18.855Z,100552.04
2019-03-25T03:37:44.822Z,100548.55
2019-03-25T03:40:10.764Z,100549.02
2019-03-25T03:42:36.764Z,100556.91
2019-03-25T03:45:03.823Z,100553.92
2019-03-25T03:47:29.695Z,100553.95
2019-03-25T03:49:55.606Z,100556.63
2019-03-25T03:52:21.558Z,100555.80
2019-03-25T03:54:47.618Z,100558.88
2019-03-25T03:57:13.590Z,100556.33
2019-03-25T03:59:39.436Z,100556.36
2019-03-25T04:02:05.298Z,100561.63
2019-03-25T04:04:31.189Z,100559.51
2019-03-25T04:06:57.083Z,100563.94
2019-03-25T04:09:23.049Z,100573.58
2019-03-25T04:11:49.016Z,100569.28
2019-03-25T04:14:14.972Z,100568.87
2019-03-25T04:16:40.971Z,100558.01
2019-03-25T04:19:06.816Z,100566.34
2019-03-25T04:21:32.698Z,100565.91
2019-03-25T04:23:58.762Z,100565.53
2019-03-25T04:26:28.861Z,100567.30
2019-03-25T04:28:52.295Z,100567.34
2019-03-25T04:31:18.176Z,100560.81
2019-03-25T04:33:44.026Z,100564.30
2019-03-25T04:36:09.883Z,100569.55
2019-03-25T04:38:35.800Z,100565.67
2019-03-25T04:41:02.180Z,100570.95
2019-03-25T04:43:28.020Z,100583.61
2019-03-25T04:45:53.899Z,100585.85
2019-03-25T04:48:19.773Z,100590.19
2019-03-25T04:50:45.733Z,100590.66
2019-03-25T04:53:11.583Z,100543.09
2019-03-25T04:55:37.475Z,100590.13
2019-03-25T04:58:03.453Z,100587.11
2019-03-25T05:00:31.239Z,100588.41
2019-03-25T05:02:57.122Z,100600.61
2019-03-25T05:05:25.985Z,100591.00
2019-03-25T05:07:51.846Z,100590.13
2019-03-25T05:10:17.731Z,100587.95
2019-03-25T05:12:43.579Z,100597.16
2019-03-25T05:15:09.531Z,100601.11
2019-03-25T05:17:36.854Z,100594.12
2019-03-25T05:20:03.687Z,100591.94
2019-03-25T05:22:29.564Z,100589.26
2019-03-25T05:24:55.527Z,100588.33
2019-03-25T05:27:21.371Z,100597.47
2019-03-25T05:29:47.315Z,100600.50
2019-03-25T05:32:13.233Z,100606.17
2019-03-25T05:34:39.074Z,100616.16
2019-03-25T05:37:04.957Z,100618.79
2019-03-25T05:39:30.834Z,100613.48
2019-03-25T05:41:56.810Z,100612.12
2019-03-25T05:44:22.674Z,100620.39
2019-03-25T05:46:48.535Z,100628.59
2019-03-25T05:49:14.378Z,100623.77
2019-03-25T05:51:40.346Z,100622.83
2019-03-25T05:54:06.329Z,100622.80
2019-03-25T05:56:32.624Z,100624.92
2019-03-25T05:58:58.477Z,100626.64
2019-03-25T06:01:25.081Z,100632.30
2019-03-25T06:03:50.937Z,100637.50
2019-03-25T06:06:16.791Z,100643.19
2019-03-25T06:08:42.871Z,100655.36
2019-03-25T06:11:08.726Z,100649.19
2019-03-25T06:13:35.413Z,100652.22
2019-03-25T06:16:01.392Z,100658.71
2019-03-25T06:18:27.419Z,100650.78
2019-03-25T06:20:53.267Z,100647.23
2019-03-25T06:23:19.499Z,100657.22
2019-03-25T06:25:45.548Z,100657.19
2019-03-25T06:28:11.417Z,100658.00
2019-03-25T06:30:37.296Z,100655.75
2019-03-25T06:33:11.903Z,100660.03
2019-03-25T06:35:30.936Z,100673.08
2019-03-25T06:37:56.995Z,100679.17
2019-03-25T06:40:22.900Z,100676.95
2019-03-25T06:42:48.958Z,100678.23
2019-03-25T06:45:14.922Z,100676.42
2019-03-25T06:47:40.906Z,100679.89
2019-03-25T06:50:07.167Z,100689.45
2019-03-25T06:52:33.220Z,100689.86
2019-03-25T06:54:59.071Z,100680.14
2019-03-25T06:57:25.931Z,100692.76
2019-03-25T06:59:52.245Z,100700.09
2019-03-25T07:02:18.093Z,100703.06
2019-03-25T07:04:44.111Z,100708.22
2019-03-25T07:07:09.959Z,100707.71
2019-03-25T07:09:36.109Z,100710.27
2019-03-25T07:12:02.176Z,100706.27
2019-03-25T07:14:28.824Z,100705.33
2019-03-25T07:16:54.705Z,100714.05
2019-03-25T07:19:20.870Z,100715.73
2019-03-25T07:21:46.911Z,100716.57
2019-03-25T07:24:12.820Z,100718.69
2019-03-25T07:26:38.725Z,100723.88
2019-03-25T07:29:05.714Z,100693.68
2019-03-25T07:31:31.598Z,100739.97
2019-03-25T07:33:57.434Z,100697.14
2019-03-25T07:36:23.283Z,100742.53
2019-03-25T07:38:49.181Z,100734.62
2019-03-25T07:41:17.046Z,100745.96
2019-03-25T07:43:42.748Z,100761.66
2019-03-25T07:46:08.625Z,100722.27
2019-03-25T07:48:34.607Z,100765.06
2019-03-25T07:51:00.588Z,100767.62
2019-03-25T07:53:26.450Z,100785.94
2019-03-25T07:55:52.309Z,100787.19
2019-03-25T07:58:18.295Z,100780.11
2019-03-25T08:00:44.202Z,100787.92
2019-03-25T08:03:10.032Z,100783.95
2019-03-25T08:05:35.905Z,100798.77
2019-03-25T08:08:01.898Z,100788.23
2019-03-25T08:10:30.212Z,100794.70
2019-03-25T08:12:56.095Z,100794.19
2019-03-25T08:15:21.953Z,100803.31
2019-03-25T08:17:47.798Z,100790.98
2019-03-25T08:20:14.049Z,100795.77
2019-03-25T08:22:40.060Z,100797.41
2019-03-25T08:25:06.140Z,100791.20
2019-03-25T08:27:31.978Z,100797.20
2019-03-25T08:29:57.846Z,100798.40
2019-03-25T08:32:23.936Z,100807.02
2019-03-25T08:34:49.894Z,100820.42
2019-03-25T08:37:15.778Z,100808.44
2019-03-25T08:39:44.579Z,100813.55
2019-03-25T08:42:10.433Z,100814.75
2019-03-25T08:44:36.660Z,100811.13
2019-03-25T08:47:02.511Z,100817.63
2019-03-25T08:49:28.741Z,100819.75
2019-03-25T08:51:54.762Z,100818.76
2019-03-25T08:54:20.624Z,100822.59
2019-03-25T08:56:46.580Z,100833.84
2019-03-25T08:59:12.696Z,100834.16
2019-03-25T09:01:38.661Z,100849.83
2019-03-25T09:04:04.646Z,100844.89
2019-03-25T09:06:30.537Z,100846.92
2019-03-25T09:08:56.392Z,100844.61
2019-03-25T09:11:23.198Z,100854.11
2019-03-25T09:13:49.246Z,100859.17
2019-03-25T09:16:15.216Z,100860.31
2019-03-25T09:18:41.173Z,100856.60
2019-03-25T09:21:07.202Z,100864.34
2019-03-25T09:23:35.293Z,100862.38
2019-03-25T09:26:01.279Z,100858.25
2019-03-25T09:28:27.212Z,100863.30
2019-03-25T09:30:56.877Z,100873.19
2019-03-25T09:33:22.845Z,100872.92
2019-03-25T09:35:50.018Z,100872.22
2019-03-25T09:38:15.935Z,100867.56
2019-03-25T09:40:41.879Z,100869.05
2019-03-25T09:43:07.772Z,100866.08
2019-03-25T09:45:33.674Z,100866.16
2019-03-25T09:47:59.937Z,100871.53
2019-03-25T09:50:25.809Z,100871.14
2019-03-25T09:52:51.669Z,100873.84
2019-03-25T09:55:17.549Z,100878.28
2019-03-25T09:57:43.853Z,100882.22
2019-03-25T10:00:10.265Z,100885.83
2019-03-25T10:02:36.303Z,100883.55
2019-03-25T10:05:02.305Z,100885.61
2019-03-25T10:07:28.456Z,100887.33
2019-03-25T10:09:56.308Z,100885.63
2019-03-25T10:12:22.190Z,100886.19
2019-03-25T10:14:48.026Z,100896.05
2019-03-25T10:17:13.903Z,100894.03
2019-03-25T10:19:40.574Z,100889.39
2019-03-25T10:22:06.648Z,100905.88
2019-03-25T10:24:32.546Z,100892.31
2019-03-25T10:26:58.370Z,100898.83
2019-03-25T10:29:24.254Z,100890.63
2019-03-25T10:31:50.213Z,100894.83
2019-03-25T10:34:16.213Z,100904.36
2019-03-25T10:36:42.185Z,100902.16
2019-03-25T10:39:08.149Z,100913.58
2019-03-25T10:41:38.531Z,100908.66
2019-03-25T10:44:04.616Z,100907.63
2019-03-25T10:46:30.455Z,100919.44
2019-03-25T10:48:56.377Z,100920.05
2019-03-25T10:51:22.239Z,100924.77
2019-03-25T10:53:48.116Z,100920.65
2019-03-25T10:56:14.098Z,100922.31
2019-03-25T10:58:39.949Z,100932.32
2019-03-25T11:01:05.991Z,100915.19
2019-03-25T11:03:32.081Z,100918.16
2019-03-25T11:05:58.063Z,100920.64
2019-03-25T11:08:23.895Z,100927.20
2019-03-25T11:10:49.898Z,100931.12
2019-03-25T11:13:15.875Z,100929.06
2019-03-25T11:15:41.732Z,100932.52
2019-03-25T11:18:07.699Z,100926.30
2019-03-25T11:20:33.607Z,100938.90
2019-03-25T11:22:59.755Z,100936.66
2019-03-25T11:25:25.754Z,100946.48
2019-03-25T11:27:54.514Z,100946.07
2019-03-25T11:30:21.176Z,100946.79
2019-03-25T11:32:47.062Z,100944.40
2019-03-25T11:35:13.118Z,100939.29
2019-03-25T11:37:38.985Z,100946.80
2019-03-25T11:40:05.884Z,100943.78
2019-03-25T11:42:31.877Z,100943.53
2019-03-25T11:44:57.841Z,100942.33
2019-03-25T11:47:23.899Z,100939.68
2019-03-25T11:49:49.674Z,100939.75
2019-03-25T11:52:15.522Z,100950.94
2019-03-25T11:54:41.519Z,100948.14
2019-03-25T11:57:07.370Z,100949.60
2019-03-25T11:59:33.252Z,100954.61
2019-03-25T12:01:59.127Z,100942.42
2019-03-25T12:04:25.196Z,100942.03
2019-03-25T12:06:51.141Z,100913.02
2019-03-25T12:09:17.031Z,100948.28
2019-03-25T12:11:42.993Z,100952.94
2019-03-25T12:14:08.863Z,100940.67
2019-03-25T12:16:36.440Z,100939.16
2019-03-25T12:19:02.706Z,100947.78
2019-03-25T12:21:28.567Z,100949.11
2019-03-25T12:23:54.579Z,100952.34
2019-03-25T12:26:20.533Z,100949.89
2019-03-25T12:28:47.360Z,100944.40
2019-03-25T12:31:13.259Z,100947.05
2019-03-25T12:33:39.122Z,100941.55
2019-03-25T12:36:05.504Z,100945.84
2019-03-25T12:38:31.504Z,100942.61
2019-03-25T12:40:57.353Z,100944.30
2019-03-25T12:43:23.307Z,100940.95
2019-03-25T12:45:49.196Z,100941.56
2019-03-25T12:48:15.171Z,100933.85
2019-03-25T12:50:41.037Z,100941.67
2019-03-25T12:53:07.040Z,100936.86
2019-03-25T12:55:32.920Z,100941.67
2019-03-25T12:57:58.773Z,100946.39
2019-03-25T13:00:26.562Z,100948.78
2019-03-25T13:02:52.648Z,100945.27
2019-03-25T13:05:18.640Z,100950.25
2019-03-25T13:07:44.555Z,100949.58
2019-03-25T13:10:10.528Z,100946.78
2019-03-25T13:12:36.370Z,100948.80
2019-03-25T13:15:03.044Z,100947.12
2019-03-25T13:17:28.886Z,100949.00
2019-03-25T13:19:54.761Z,100949.06
2019-03-25T13:22:20.752Z,100949.84
2019-03-25T13:24:46.825Z,100955.77
2019-03-25T13:27:12.771Z,100953.38
2019-03-25T13:29:38.683Z,100946.00
2019-03-25T13:32:04.522Z,100947.85
2019-03-25T13:34:32.271Z,100942.16
2019-03-25T13:36:58.357Z,100940.02
2019-03-25T13:39:24.216Z,100934.92
2019-03-25T13:41:50.075Z,100932.72
2019-03-25T13:44:15.990Z,100931.81
2019-03-25T13:46:41.858Z,100933.98
2019-03-25T13:49:07.714Z,100940.61
2019-03-25T13:51:33.611Z,100938.44
2019-03-25T13:53:59.485Z,100938.51
2019-03-25T13:56:25.463Z,100943.14
2019-03-25T13:58:51.302Z,100942.14
2019-03-25T14:01:17.148Z,100941.01
2019-03-25T14:03:43.063Z,100937.22
2019-03-25T14:06:08.917Z,100944.82
2019-03-25T14:08:34.776Z,100937.93
2019-03-25T14:11:00.782Z,100937.19
2019-03-25T14:13:26.629Z,100930.69
2019-03-25T14:15:52.612Z,100930.81
2019-03-25T14:18:18.482Z,100930.48
2019-03-25T14:20:44.327Z,100925.70
2019-03-25T14:23:10.393Z,100921.41
2019-03-25T14:25:36.442Z,100923.18
2019-03-25T14:28:02.524Z,100918.00
2019-03-25T14:30:28.381Z,100916.67
2019-03-25T14:32:54.475Z,100918.42
2019-03-25T14:35:20.348Z,100916.74
2019-03-25T14:37:46.309Z,100922.05
2019-03-25T14:40:12.366Z,100914.77
2019-03-25T14:42:38.494Z,100908.72
2019-03-25T14:45:04.973Z,100906.13
2019-03-25T14:47:31.077Z,100906.45
2019-03-25T14:49:56.923Z,100902.36
2019-03-25T14:52:22.762Z,100897.05
2019-03-25T14:54:48.919Z,100900.58
2019-03-25T14:57:14.804Z,100899.31
2019-03-25T14:59:40.780Z,100897.63
2019-03-25T15:02:06.956Z,100901.16
2019-03-25T15:04:32.921Z,100896.05
2019-03-25T15:06:58.965Z,100893.46
2019-03-25T15:09:25.021Z,100892.59
2019-03-25T15:11:50.889Z,100889.94
2019-03-25T15:14:16.842Z,100883.38
2019-03-25T15:16:43.181Z,100890.00
2019-03-25T15:19:09.165Z,100875.91
2019-03-25T15:21:35.159Z,100882.24
2019-03-25T15:24:01.275Z,100876.23
2019-03-25T15:26:27.140Z,100877.13
2019-03-25T15:28:53.017Z,100868.73
2019-03-25T15:31:19.094Z,100875.62
2019-03-25T15:33:45.056Z,100867.60
2019-03-25T15:36:10.983Z,100868.41
2019-03-25T15:38:37.126Z,100870.13
2019-03-25T15:41:02.977Z,100864.77
2019-03-25T15:43:28.895Z,100859.82
2019-03-25T15:45:54.839Z,100857.56
2019-03-25T15:48:20.716Z,100855.84
2019-03-25T15:50:46.715Z,100855.49
2019-03-25T15:53:12.766Z,100851.70
2019-03-25T15:55:38.621Z,100848.41
2019-03-25T15:58:04.605Z,100845.89
2019-03-25T16:00:30.735Z,100852.09
2019-03-25T16:02:56.602Z,100844.27
2019-03-25T16:05:22.616Z,100843.37
2019-03-25T16:07:48.736Z,100837.64
2019-03-25T16:10:15.502Z,100843.06
2019-03-25T16:12:41.384Z,100834.34
2019-03-25T16:15:07.977Z,100833.02
2019-03-25T16:17:33.942Z,100830.83
2019-03-25T16:19:59.901Z,100834.41
2019-03-25T16:22:25.934Z,100828.69
2019-03-25T16:24:51.881Z,100830.95
2019-03-25T16:27:17.773Z,100823.39
2019-03-25T16:29:43.803Z,100823.33
2019-03-25T16:32:09.769Z,100825.98
2019-03-25T16:34:35.746Z,100824.27
2019-03-25T16:37:01.763Z,100831.28
2019-03-25T16:39:27.751Z,100827.36
2019-03-25T16:41:53.634Z,100824.78
2019-03-25T16:44:19.671Z,100818.16
2019-03-25T16:46:45.531Z,100819.87
2019-03-25T16:49:11.408Z,100814.25
2019-03-25T16:51:37.360Z,100820.48
2019-03-25T16:54:03.352Z,100818.02
2019-03-25T16:56:30.187Z,100819.05
2019-03-25T16:58:56.145Z,100810.39
2019-03-25T17:01:22.053Z,100810.39
2019-03-25T17:03:47.932Z,100812.55
2019-03-25T17:06:14.041Z,100813.05
2019-03-25T17:08:39.976Z,100803.35
2019-03-25T17:11:05.976Z,100807.80
2019-03-25T17:13:31.912Z,100796.80
2019-03-25T17:15:57.788Z,100801.70
2019-03-25T17:18:23.763Z,100789.52
2019-03-25T17:20:51.281Z,100794.45
2019-03-25T17:23:17.171Z,100797.72
2019-03-25T17:25:52.704Z,100788.54
2019-03-25T17:28:11.030Z,100776.03
2019-03-25T17:30:37.017Z,100784.16
2019-03-25T17:33:02.870Z,100791.41
2019-03-25T17:35:28.875Z,100781.40
2019-03-25T17:37:54.890Z,100795.30
2019-03-25T17:40:20.794Z,100790.19
2019-03-25T17:42:46.701Z,100781.25
2019-03-25T17:45:13.004Z,100781.55
2019-03-25T17:47:38.909Z,100779.63
2019-03-25T17:50:05.749Z,100782.89
2019-03-25T17:52:31.647Z,100775.16
2019-03-25T17:54:57.635Z,100774.07
2019-03-25T17:57:23.647Z,100771.30
2019-03-25T17:59:49.550Z,100775.91
2019-03-25T18:02:15.430Z,100774.34
2019-03-25T18:04:41.485Z,100769.77
2019-03-25T18:07:07.385Z,100775.13
2019-03-25T18:09:33.242Z,100777.44
2019-03-25T18:11:59.315Z,100770.55
2019-03-25T18:14:25.194Z,100765.48
2019-03-25T18:16:51.083Z,100767.03
2019-03-25T18:19:17.217Z,100762.80
2019-03-25T18:21:43.094Z,100761.59
2019-03-25T18:24:09.066Z,100753.89
2019-03-25T18:26:35.105Z,100749.27
2019-03-25T18:29:01.051Z,100747.44
2019-03-25T18:31:26.953Z,100746.33
2019-03-25T18:33:52.883Z,100748.26
2019-03-25T18:36:18.898Z,100733.19
2019-03-25T18:38:44.783Z,100739.23
2019-03-25T18:41:10.829Z,100723.59
2019-03-25T18:43:36.716Z,100716.66
2019-03-25T18:46:02.687Z,100719.74
2019-03-25T18:48:28.833Z,100706.20
2019-03-25T18:50:54.719Z,100704.12
2019-03-25T18:53:24.733Z,100703.88
2019-03-25T18:55:50.832Z,100697.94
2019-03-25T18:58:16.835Z,100707.48
2019-03-25T19:00:43.906Z,100700.27
2019-03-25T19:03:10.165Z,100696.61
2019-03-25T19:05:35.983Z,100689.92
2019-03-25T19:08:02.792Z,100694.03
2019-03-25T19:10:29.121Z,100691.44
2019-03-25T19:12:55.108Z,100689.74
2019-03-25T19:15:20.978Z,100692.42
2019-03-25T19:17:47.000Z,100688.13
2019-03-25T19:20:12.886Z,100688.67
2019-03-25T19:22:38.751Z,100684.81
2019-03-25T19:25:05.055Z,100679.69
2019-03-25T19:27:30.998Z,100687.34
2019-03-25T19:29:56.847Z,100684.02
2019-03-25T19:32:22.856Z,100682.41
2019-03-25T19:34:48.748Z,100681.67
2019-03-25T19:37:15.828Z,100681.32
2019-03-25T19:39:41.936Z,100673.31
2019-03-25T19:42:08.012Z,100668.38
2019-03-25T19:44:33.899Z,100662.80
2019-03-25T19:46:59.929Z,100666.80
2019-03-25T19:49:25.861Z,100664.20
2019-03-25T19:51:51.812Z,100661.14
2019-03-25T19:54:17.761Z,100666.94
2019-03-25T19:56:43.744Z,100661.37
2019-03-25T19:59:09.817Z,100620.98
2019-03-25T20:01:35.964Z,100664.66
2019-03-25T20:04:01.976Z,100672.78
2019-03-25T20:06:27.945Z,100674.41
2019-03-25T20:08:54.011Z,100670.28
2019-03-25T20:11:20.088Z,100666.02
2019-03-25T20:13:45.971Z,100664.35
2019-03-25T20:16:11.959Z,100663.95
2019-03-25T20:18:38.116Z,100659.22
2019-03-25T20:21:04.120Z,100650.30
2019-03-25T20:23:30.120Z,100656.17
2019-03-25T20:25:56.006Z,100647.45
2019-03-25T20:28:21.857Z,100650.55
2019-03-25T20:30:47.884Z,100641.79
2019-03-25T20:33:14.119Z,100635.66
2019-03-25T20:35:40.228Z,100632.63
2019-03-25T20:38:06.368Z,100632.67
2019-03-25T20:40:32.256Z,100633.70
2019-03-25T20:42:58.089Z,100633.00
2019-03-25T20:45:24.210Z,100636.19
2019-03-25T20:47:50.240Z,100639.97
2019-03-25T20:50:16.207Z,100634.11
2019-03-25T20:52:42.257Z,100634.34
2019-03-25T20:55:08.259Z,100637.97
2019-03-25T20:57:34.257Z,100631.80
2019-03-25T21:00:00.472Z,100636.14
2019-03-25T21:02:28.265Z,100643.14
2019-03-25T21:04:54.146Z,100640.09
2019-03-25T21:07:20.379Z,100643.66
2019-03-25T21:09:46.408Z,100644.58
2019-03-25T21:12:12.371Z,100640.79
2019-03-25T21:14:38.394Z,100651.13
2019-03-25T21:17:04.386Z,100639.05
2019-03-25T21:19:30.344Z,100637.80
2019-03-25T21:21:56.413Z,100647.80
2019-03-25T21:24:22.364Z,100645.21
2019-03-25T21:26:48.163Z,100641.23
2019-03-25T21:29:14.199Z,100649.12
2019-03-25T21:31:40.167Z,100641.23
2019-03-25T21:34:06.167Z,100637.33
2019-03-25T21:36:32.155Z,100636.02
2019-03-25T21:38:58.070Z,100633.43
2019-03-25T21:41:24.064Z,100625.59
2019-03-25T21:43:50.089Z,100631.75
2019-03-25T21:46:15.971Z,100632.19
2019-03-25T21:48:41.877Z,100637.55
2019-03-25T21:51:07.932Z,100638.90
2019-03-25T21:53:33.757Z,100643.31
2019-03-25T21:55:59.756Z,100636.02
2019-03-25T21:58:26.011Z,100632.55
2019-03-25T22:00:51.906Z,100633.02
2019-03-25T22:03:19.221Z,100639.63
2019-03-25T22:05:45.258Z,100636.59
2019-03-25T22:08:11.108Z,100642.31
2019-03-25T22:10:37.169Z,100642.92
2019-03-25T22:13:03.390Z,100649.59
2019-03-25T22:15:29.368Z,100654.44
2019-03-25T22:17:55.211Z,100650.94
2019-03-25T22:20:21.275Z,100651.01
2019-03-25T22:22:47.144Z,100649.80
2019-03-25T22:25:13.138Z,100649.49
2019-03-25T22:27:39.214Z,100646.53
2019-03-25T22:30:05.569Z,100648.28
2019-03-25T22:32:31.572Z,100652.69
2019-03-25T22:34:57.533Z,100654.56
2019-03-25T22:37:23.378Z,100653.75
2019-03-25T22:39:49.240Z,100654.22
2019-03-25T22:42:15.439Z,100662.09
2019-03-25T22:44:41.320Z,100659.47
2019-03-25T22:47:07.310Z,100662.97
2019-03-25T22:49:33.397Z,100666.46
2019-03-25T22:51:59.317Z,100663.84
2019-03-25T22:54:25.192Z,100659.06
2019-03-25T22:56:51.253Z,100664.34
2019-03-25T22:59:17.109Z,100664.37
2019-03-25T23:01:43.092Z,100670.49
2019-03-25T23:04:09.163Z,100663.56
2019-03-25T23:06:35.130Z,100644.60
2019-03-25T23:09:00.999Z,100672.77
2019-03-25T23:11:27.070Z,100675.86
2019-03-25T23:13:53.047Z,100673.89
2019-03-25T23:16:19.036Z,100681.06
2019-03-25T23:18:45.044Z,100684.76
2019-03-25T23:21:11.014Z,100688.86
2019-03-25T23:23:36.873Z,100689.41
2019-03-25T23:26:04.851Z,100691.62
2019-03-25T23:28:30.728Z,100697.33
2019-03-25T23:30:56.669Z,100698.25
2019-03-25T23:33:22.756Z,100700.08
2019-03-25T23:35:48.717Z,100706.62
2019-03-25T23:38:14.714Z,100703.98
2019-03-25T23:40:40.841Z,100708.79
2019-03-25T23:43:06.684Z,100707.02
2019-03-25T23:45:32.579Z,100718.35
2019-03-25T23:47:58.666Z,100716.59
2019-03-25T23:50:24.526Z,100713.16
2019-03-25T23:52:50.371Z,100716.75
2019-03-25T23:55:16.482Z,100712.47
2019-03-25T23:57:42.337Z,100719.05
